Saturday, September 22, 2018, 9:23 AM EDT
Back to Local

KPVD, Providence Green State Airport

Location: Warwick, RI, United States Lat: 41.733
Local Time: 9:23 AM EDT (13:23 GMT) Lon: -71.433
Time Zone: US/Eastern Elev: 55 ft

Show me the last for .
Show Decoded

2018-09-22 08:51 METAR KPVD 221251Z 32013G22KT 10SM SCT043 SCT250 21/12 A3003 RMK AO2 SLP168
                 T02060117 =
2018-09-22 07:51 METAR KPVD 221151Z COR 31011G23KT 10SM FEW015 BKN043 BKN250 21/12 A3000 RMK AO2
                 PK WND 29027/1128 SLP158 60001 70001 T02060122 10222 20206 53035 =
2018-09-22 07:18 METAR KPVD 221118Z 30018G27KT 10SM SCT021 SCT029 BKN230 22/17 A2998 =
2018-09-22 06:51 METAR KPVD 221051Z COR 28008KT 10SM SCT015 SCT031 BKN230 22/20 A2995 RMK AO2
                 SLP140 T02170200 =
2018-09-22 06:30 METAR KPVD 221030Z 26010KT 10SM FEW015 SCT024 SCT031 BKN230 22/20 A2993 RMK AO2
                 T02170200 =
2018-09-22 05:51 METAR KPVD 220951Z 25009KT 10SM BKN015 OVC023 22/21 A2991 RMK AO2 RAE06 SLP127
                 P0001 T02170206 =
2018-09-22 05:33 METAR KPVD 220933Z 24008KT 10SM BKN016 OVC021 22/21 A2990 RMK AO2 RAE06 P0001
                 T02170206 =
2018-09-22 05:08 METAR KPVD 220908Z 22009KT 10SM BKN013 OVC019 22/21 A2989 RMK AO2 RAE06 P0001
                 T02170206 =
2018-09-22 04:51 METAR KPVD 220851Z 23011KT 8SM -RA OVC015 21/21 A2990 RMK AO2 RAE35B51 SLP123
                 P0000 60000 T02110206 56015 =
2018-09-22 03:51 METAR KPVD 220751Z 23012KT 10SM -RA OVC016 22/19 A2990 RMK AO2 RAB50 SLP123
                 P0000 T02220194 =
2018-09-22 02:51 METAR KPVD 220651Z 21012KT 10SM BKN025 OVC030 22/19 A2991 RMK AO2 SLP127
                 T02170189 =
2018-09-22 02:43 METAR KPVD 220643Z 22013KT 10SM BKN025 OVC030 22/18 A2991 RMK AO2 T02170183 =
2018-09-22 01:51 METAR KPVD 220551Z 21012G20KT 10SM OVC033 22/18 A2994 RMK AO2 SLP137 T02170178
                 10217 20189 56026 =
2018-09-22 00:51 METAR KPVD 220451Z 21015G23KT 10SM OVC039 21/17 A2996 RMK AO2 PK WND 21026/0432
                 SLP144 T02110172 402170139 =
2018-09-21 23:51 METAR KPVD 220351Z 21014KT 10SM BKN039 21/17 A2999 RMK AO2 SLP154 LAST T02060172
                 =
2018-09-21 22:51 METAR KPVD 220251Z 21011KT 10SM FEW016 BKN048 20/18 A3002 RMK AO2 SLP163
                 T02000178 58002 =
2018-09-21 21:51 METAR KPVD 220151Z 21009KT 10SM SCT016 BKN048 19/17 A3003 RMK AO2 SLP169
                 T01940172 =
2018-09-21 21:37 METAR KPVD 220137Z 20009KT 10SM BKN017 BKN048 19/17 A3003 RMK AO2 CIG 016V020
                 T01940172 =
2018-09-21 20:51 METAR KPVD 220051Z 18011KT 10SM FEW017 SCT040 SCT055 19/17 A3002 RMK AO2 SLP166
                 T01890167 =
2018-09-21 19:51 METAR KPVD 212351Z 18010KT 10SM FEW018 FEW040 BKN055 19/16 A3005 RMK AO2 SLP175
                 T01890161 10200 20189 58025 =
2018-09-21 18:51 METAR KPVD 212251Z 19011KT 10SM FEW018 OVC042 19/16 A3007 RMK AO2 SLP184
                 T01890156 =
2018-09-21 17:51 METAR KPVD 212151Z 19010KT 10SM FEW025 OVC050 19/15 A3010 RMK AO2 SLP192
                 T01890150 =
2018-09-21 16:51 METAR KPVD 212051Z 19012KT 10SM FEW025 BKN048 19/14 A3012 RMK AO2 SLP201
                 T01940139 56026 =
2018-09-21 15:51 METAR KPVD 211951Z 19010KT 10SM FEW030 BKN055 19/14 A3015 RMK AO2 SLP211
                 T01940139 =
2018-09-21 14:51 METAR KPVD 211851Z 16013KT 10SM FEW035 BKN055 20/13 A3017 RMK AO2 SLP216
                 T02000133 =
2018-09-21 13:51 METAR KPVD 211751Z 16011KT 10SM SCT030 BKN050 20/13 A3020 RMK AO2 SLP227
                 T02000128 10206 20161 58023 =
2018-09-21 12:51 METAR KPVD 211651Z 18011KT 10SM SCT030 SCT085 20/12 A3022 RMK AO2 SLP235
                 T02000122 =
2018-09-21 11:51 METAR KPVD 211551Z 15011KT 10SM SCT025 19/12 A3025 RMK AO2 SLP244 T01940122 =
2018-09-21 10:51 METAR KPVD 211451Z 18010KT 10SM SCT060 SCT250 19/13 A3027 RMK AO2 SLP250
                 T01940128 58016 =
2018-09-21 09:51 METAR KPVD 211351Z 15011KT 10SM FEW085 19/13 A3029 RMK AO2 SLP256 T01890128 =

Support USWX by starting your Amazon purchase here.